createdAt,value
2023-04-27T00:00:49.251Z,7.23
2023-04-27T00:01:49.253Z,7.21
2023-04-27T00:02:49.403Z,7.18
2023-04-27T00:03:49.344Z,7.16
2023-04-27T00:04:49.478Z,7.14
2023-04-27T00:05:49.419Z,7.12
2023-04-27T00:06:49.170Z,7.11
2023-04-27T00:07:49.174Z,7.09
2023-04-27T00:08:49.163Z,7.08
2023-04-27T00:09:49.132Z,7.05
2023-04-27T00:10:49.089Z,7.04
2023-04-27T00:11:49.094Z,6.99
2023-04-27T00:12:49.068Z,6.97
2023-04-27T00:13:49.097Z,6.96
2023-04-27T00:14:49.049Z,6.94
2023-04-27T00:15:49.054Z,6.91
2023-04-27T00:16:49.036Z,6.89
2023-04-27T00:17:49.004Z,6.90
2023-04-27T00:18:49.020Z,6.87
2023-04-27T00:19:49.004Z,6.87
2023-04-27T00:20:49.013Z,6.86
2023-04-27T00:21:48.977Z,6.86
2023-04-27T00:22:48.956Z,6.83
2023-04-27T00:23:48.986Z,6.83
2023-04-27T00:24:48.932Z,6.82
2023-04-27T00:25:48.913Z,6.82
2023-04-27T00:26:48.899Z,6.79
2023-04-27T00:27:48.904Z,6.79
2023-04-27T00:28:48.886Z,6.79
2023-04-27T00:29:48.862Z,6.78
2023-04-27T00:30:48.847Z,6.76
2023-04-27T00:31:48.892Z,6.78
2023-04-27T00:32:48.866Z,6.76
2023-04-27T00:33:48.852Z,6.76
2023-04-27T00:34:48.793Z,6.76
2023-04-27T00:35:48.779Z,6.76
2023-04-27T00:36:48.777Z,6.78
2023-04-27T00:37:48.745Z,6.78
2023-04-27T00:38:48.810Z,6.78
2023-04-27T00:39:48.744Z,6.78
2023-04-27T00:40:48.800Z,6.79
2023-04-27T00:41:48.702Z,6.78
2023-04-27T00:42:48.694Z,6.78
2023-04-27T00:43:48.717Z,6.79
2023-04-27T00:44:48.706Z,6.78
2023-04-27T00:45:48.760Z,6.79
2023-04-27T00:46:48.620Z,6.78
2023-04-27T00:47:48.654Z,6.79
2023-04-27T00:48:48.621Z,6.78
2023-04-27T00:49:48.578Z,6.81
2023-04-27T00:50:48.556Z,6.81
2023-04-27T00:51:48.586Z,6.81
2023-04-27T00:52:48.554Z,6.82
2023-04-27T00:53:48.553Z,6.82
2023-04-27T00:54:48.508Z,6.86
2023-04-27T00:55:48.526Z,6.83
2023-04-27T00:56:48.500Z,6.86
2023-04-27T00:57:48.497Z,6.86
2023-04-27T00:58:48.466Z,6.83
2023-04-27T00:59:48.502Z,6.83
2023-04-27T01:00:48.416Z,6.82
2023-04-27T01:01:48.466Z,6.81
2023-04-27T01:02:48.465Z,6.82
2023-04-27T01:03:48.624Z,6.81
2023-04-27T01:04:48.437Z,6.78
2023-04-27T01:05:48.379Z,6.78
2023-04-27T01:06:48.401Z,6.75
2023-04-27T01:07:48.385Z,6.73
2023-04-27T01:08:48.321Z,6.73
2023-04-27T01:09:48.364Z,6.75
2023-04-27T01:10:48.323Z,6.75
2023-04-27T01:11:48.302Z,6.76
2023-04-27T01:12:48.305Z,6.76
2023-04-27T01:13:48.312Z,6.76
2023-04-27T01:14:48.281Z,6.72
2023-04-27T01:15:48.305Z,6.69
2023-04-27T01:16:48.275Z,6.68
2023-04-27T01:17:48.260Z,6.64
2023-04-27T01:18:48.250Z,6.61
2023-04-27T01:19:48.187Z,6.60
2023-04-27T01:20:48.190Z,6.57
2023-04-27T01:21:48.209Z,6.55
2023-04-27T01:22:48.173Z,6.54
2023-04-27T01:23:48.157Z,6.50
2023-04-27T01:24:48.116Z,6.51
2023-04-27T01:25:48.105Z,6.48
2023-04-27T01:26:48.099Z,6.43
2023-04-27T01:27:48.091Z,6.43
2023-04-27T01:28:48.101Z,6.42
2023-04-27T01:29:48.098Z,6.40
2023-04-27T01:30:48.059Z,6.38
2023-04-27T01:31:48.087Z,6.35
2023-04-27T01:32:48.103Z,6.36
2023-04-27T01:33:48.068Z,6.32
2023-04-27T01:34:48.010Z,6.32
2023-04-27T01:35:48.000Z,6.28
2023-04-27T01:36:47.973Z,6.27
2023-04-27T01:37:47.976Z,6.25
2023-04-27T01:38:47.965Z,6.21
2023-04-27T01:39:47.932Z,6.20
2023-04-27T01:40:47.912Z,6.17
2023-04-27T01:41:47.951Z,6.16
2023-04-27T01:42:47.886Z,6.14
2023-04-27T01:43:47.924Z,6.14
2023-04-27T01:44:47.851Z,6.14
2023-04-27T01:45:47.911Z,6.13
2023-04-27T01:46:47.940Z,6.10
2023-04-27T01:47:47.908Z,6.10
2023-04-27T01:48:47.809Z,6.06
2023-04-27T01:49:47.839Z,6.06
2023-04-27T01:50:47.815Z,6.03
2023-04-27T01:51:47.796Z,6.03
2023-04-27T01:52:47.770Z,6.01
2023-04-27T01:53:47.811Z,6.01
2023-04-27T01:54:47.775Z,5.98
2023-04-27T01:55:47.751Z,5.98
2023-04-27T01:56:47.703Z,5.95
2023-04-27T01:57:47.780Z,5.93
2023-04-27T01:58:47.692Z,5.92
2023-04-27T01:59:47.685Z,5.88
2023-04-27T02:00:47.689Z,5.87
2023-04-27T02:01:47.708Z,5.84
2023-04-27T02:02:47.793Z,5.83
2023-04-27T02:03:47.926Z,5.81
2023-04-27T02:04:47.734Z,5.80
2023-04-27T02:05:47.650Z,5.80
2023-04-27T02:06:47.630Z,5.78
2023-04-27T02:07:47.575Z,5.77
2023-04-27T02:08:47.585Z,5.77
2023-04-27T02:09:47.581Z,5.75
2023-04-27T02:10:47.606Z,5.74
2023-04-27T02:11:47.572Z,5.70
2023-04-27T02:12:47.504Z,5.67
2023-04-27T02:13:47.504Z,5.66
2023-04-27T02:14:47.476Z,5.65
2023-04-27T02:15:47.597Z,5.63
2023-04-27T02:16:47.453Z,5.60
2023-04-27T02:17:47.520Z,5.59
2023-04-27T02:18:47.463Z,5.56
2023-04-27T02:19:47.451Z,5.56
2023-04-27T02:20:47.415Z,5.52
2023-04-27T02:21:47.452Z,5.52
2023-04-27T02:22:47.417Z,5.52
2023-04-27T02:23:47.397Z,5.52
2023-04-27T02:24:47.370Z,5.51
2023-04-27T02:25:47.404Z,5.47
2023-04-27T02:26:47.329Z,5.47
2023-04-27T02:27:47.325Z,5.49
2023-04-27T02:28:47.319Z,5.48
2023-04-27T02:29:47.317Z,5.49
2023-04-27T02:30:47.363Z,5.49
2023-04-27T02:31:47.300Z,5.47
2023-04-27T02:32:47.294Z,5.47
2023-04-27T02:33:47.252Z,5.45
2023-04-27T02:34:47.256Z,5.47
2023-04-27T02:35:47.256Z,5.45
2023-04-27T02:36:47.217Z,5.45
2023-04-27T02:37:47.191Z,5.47
2023-04-27T02:38:47.173Z,5.47
2023-04-27T02:39:47.194Z,5.47
2023-04-27T02:40:47.180Z,5.47
2023-04-27T02:41:47.171Z,5.45
2023-04-27T02:42:47.158Z,5.44
2023-04-27T02:43:47.140Z,5.42
2023-04-27T02:44:47.104Z,5.41
2023-04-27T02:45:47.115Z,5.40
2023-04-27T02:46:47.063Z,5.38
2023-04-27T02:47:47.112Z,5.38
2023-04-27T02:48:47.064Z,5.37
2023-04-27T02:49:47.037Z,5.35
2023-04-27T02:50:47.009Z,5.35
2023-04-27T02:51:47.061Z,5.37
2023-04-27T02:52:47.018Z,5.33
2023-04-27T02:53:46.998Z,5.29
2023-04-27T02:54:47.020Z,5.29
2023-04-27T02:55:46.983Z,5.30
2023-04-27T02:56:46.936Z,5.27
2023-04-27T02:57:46.954Z,5.32
2023-04-27T02:58:46.972Z,5.30
2023-04-27T02:59:46.936Z,5.32
2023-04-27T03:00:48.602Z,5.30
2023-04-27T03:01:46.901Z,5.30
2023-04-27T03:02:46.961Z,5.30
2023-04-27T03:03:46.994Z,5.27
2023-04-27T03:04:46.931Z,5.27
2023-04-27T03:05:46.863Z,5.24
2023-04-27T03:06:46.847Z,5.23
2023-04-27T03:07:46.803Z,5.20
2023-04-27T03:08:46.815Z,5.22
2023-04-27T03:09:46.816Z,5.20
2023-04-27T03:10:46.774Z,5.19
2023-04-27T03:11:46.785Z,5.19
2023-04-27T03:12:46.737Z,5.15
2023-04-27T03:13:46.770Z,5.19
2023-04-27T03:14:46.734Z,5.17
2023-04-27T03:15:46.707Z,5.15
2023-04-27T03:16:46.710Z,5.15
2023-04-27T03:17:46.729Z,5.15
2023-04-27T03:18:46.685Z,5.15
2023-04-27T03:19:46.706Z,5.15
2023-04-27T03:20:46.654Z,5.12
2023-04-27T03:21:46.628Z,5.11
2023-04-27T03:22:46.598Z,5.09
2023-04-27T03:23:46.667Z,5.08
2023-04-27T03:24:46.609Z,5.05
2023-04-27T03:25:46.600Z,5.05
2023-04-27T03:26:46.590Z,5.02
2023-04-27T03:27:46.570Z,5.01
2023-04-27T03:28:46.560Z,5.02
2023-04-27T03:29:46.540Z,5.02
2023-04-27T03:30:46.517Z,4.99
2023-04-27T03:31:46.603Z,4.97
2023-04-27T03:32:47.838Z,4.96
2023-04-27T03:33:46.471Z,4.96
2023-04-27T03:34:46.503Z,4.94
2023-04-27T03:35:46.513Z,4.96
2023-04-27T03:36:46.427Z,4.94
2023-04-27T03:37:46.464Z,4.94
2023-04-27T03:38:46.422Z,4.94
2023-04-27T03:39:46.420Z,4.94
2023-04-27T03:40:46.462Z,4.93
2023-04-27T03:41:46.439Z,4.93
2023-04-27T03:42:46.372Z,4.90
2023-04-27T03:43:46.349Z,4.87
2023-04-27T03:44:46.351Z,4.87
2023-04-27T03:45:46.368Z,4.84
2023-04-27T03:46:46.332Z,4.80
2023-04-27T03:47:46.322Z,4.79
2023-04-27T03:48:46.301Z,4.75
2023-04-27T03:49:46.299Z,4.75
2023-04-27T03:50:46.277Z,4.75
2023-04-27T03:51:46.266Z,4.74
2023-04-27T03:52:46.265Z,4.75
2023-04-27T03:53:46.224Z,4.72
2023-04-27T03:54:46.229Z,4.71
2023-04-27T03:55:46.191Z,4.69
2023-04-27T03:56:46.176Z,4.69
2023-04-27T03:57:46.194Z,4.69
2023-04-27T03:58:46.247Z,4.71
2023-04-27T03:59:46.179Z,4.71
2023-04-27T04:00:46.147Z,4.69
2023-04-27T04:01:46.156Z,4.68
2023-04-27T04:02:46.227Z,4.69
2023-04-27T04:03:46.294Z,4.68
2023-04-27T04:04:46.303Z,4.65
2023-04-27T04:05:46.077Z,4.65
2023-04-27T04:06:46.073Z,4.65
2023-04-27T04:07:46.044Z,4.64
2023-04-27T04:08:46.047Z,4.62
2023-04-27T04:09:46.079Z,4.61
2023-04-27T04:10:45.990Z,4.61
2023-04-27T04:11:46.051Z,4.61
2023-04-27T04:12:46.018Z,4.62
2023-04-27T04:13:46.010Z,4.61
2023-04-27T04:14:45.951Z,4.59
2023-04-27T04:15:45.987Z,4.62
2023-04-27T04:16:45.952Z,4.59
2023-04-27T04:17:45.989Z,4.59
2023-04-27T04:18:45.893Z,4.59
2023-04-27T04:19:45.900Z,4.59
2023-04-27T04:20:45.896Z,4.59
2023-04-27T04:21:45.888Z,4.62
2023-04-27T04:22:45.881Z,4.64
2023-04-27T04:23:45.844Z,4.67
2023-04-27T04:24:45.803Z,4.67
2023-04-27T04:25:45.828Z,4.67
2023-04-27T04:26:45.807Z,4.65
2023-04-27T04:27:45.801Z,4.65
2023-04-27T04:28:45.810Z,4.67
2023-04-27T04:29:45.785Z,4.65
2023-04-27T04:30:45.848Z,4.64
2023-04-27T04:31:45.894Z,4.62
2023-04-27T04:32:45.805Z,4.62
2023-04-27T04:33:45.707Z,4.64
2023-04-27T04:34:45.720Z,4.64
2023-04-27T04:35:45.709Z,4.64
2023-04-27T04:36:45.683Z,4.64
2023-04-27T04:37:45.681Z,4.64
2023-04-27T04:38:45.634Z,4.64
2023-04-27T04:39:45.650Z,4.62
2023-04-27T04:40:46.053Z,4.64
2023-04-27T04:41:45.769Z,4.64
2023-04-27T04:42:45.602Z,4.64
2023-04-27T04:43:45.553Z,4.64
2023-04-27T04:44:45.557Z,4.64
2023-04-27T04:45:45.561Z,4.64
2023-04-27T04:46:45.646Z,4.67
2023-04-27T04:47:45.631Z,4.67
2023-04-27T04:48:45.522Z,4.68
2023-04-27T04:49:45.531Z,4.69
2023-04-27T04:50:45.529Z,4.69
2023-04-27T04:51:45.483Z,4.71
2023-04-27T04:52:45.491Z,4.72
2023-04-27T04:53:45.492Z,4.75
2023-04-27T04:54:45.450Z,4.75
2023-04-27T04:55:45.440Z,4.79
2023-04-27T04:56:45.411Z,4.80
2023-04-27T04:57:45.411Z,4.83
2023-04-27T04:58:45.452Z,4.83
2023-04-27T04:59:45.400Z,4.84
2023-04-27T05:00:45.359Z,4.84
2023-04-27T05:01:45.377Z,4.84
2023-04-27T05:02:45.483Z,4.84
2023-04-27T05:03:45.522Z,4.84
2023-04-27T05:04:45.486Z,4.86
2023-04-27T05:05:45.282Z,4.84
2023-04-27T05:06:45.328Z,4.87
2023-04-27T05:07:45.253Z,4.88
2023-04-27T05:08:45.296Z,4.90
2023-04-27T05:09:45.300Z,4.91
2023-04-27T05:10:45.256Z,4.91
2023-04-27T05:11:45.220Z,4.94
2023-04-27T05:12:45.209Z,4.96
2023-04-27T05:13:45.213Z,4.94
2023-04-27T05:14:45.217Z,4.94
2023-04-27T05:15:45.221Z,4.97
2023-04-27T05:16:45.151Z,4.97
2023-04-27T05:17:45.229Z,4.99
2023-04-27T05:18:45.172Z,5.01
2023-04-27T05:19:45.117Z,5.02
2023-04-27T05:20:45.129Z,5.05
2023-04-27T05:21:45.085Z,5.12
2023-04-27T05:22:45.079Z,5.17
2023-04-27T05:23:45.080Z,5.23
2023-04-27T05:24:45.094Z,5.26
2023-04-27T05:25:45.056Z,5.27
2023-04-27T05:26:45.030Z,5.32
2023-04-27T05:27:45.007Z,5.33
2023-04-27T05:28:45.023Z,5.37
2023-04-27T05:29:45.009Z,5.42
2023-04-27T05:30:45.018Z,5.47
2023-04-27T05:31:45.001Z,5.48
2023-04-27T05:32:45.015Z,5.48
2023-04-27T05:33:44.921Z,5.55
2023-04-27T05:34:46.659Z,5.56
2023-04-27T05:35:44.975Z,5.58
2023-04-27T05:36:44.946Z,5.59
2023-04-27T05:37:44.902Z,5.63
2023-04-27T05:38:44.890Z,5.65
2023-04-27T05:39:44.850Z,5.69
2023-04-27T05:40:44.856Z,5.73
2023-04-27T05:41:44.821Z,5.75
2023-04-27T05:42:44.918Z,5.75
2023-04-27T05:43:44.824Z,5.81
2023-04-27T05:44:44.814Z,5.81
2023-04-27T05:45:44.809Z,5.84
2023-04-27T05:46:44.794Z,5.87
2023-04-27T05:47:44.819Z,5.90
2023-04-27T05:48:44.799Z,5.92
2023-04-27T05:49:44.720Z,5.95
2023-04-27T05:50:44.739Z,5.96
2023-04-27T05:51:44.742Z,5.98
2023-04-27T05:52:44.695Z,5.99
2023-04-27T05:53:44.703Z,6.01
2023-04-27T05:54:44.665Z,6.03
2023-04-27T05:55:44.686Z,6.05
2023-04-27T05:56:44.661Z,6.05
2023-04-27T05:57:44.745Z,6.08
2023-04-27T05:58:44.644Z,6.10
2023-04-27T05:59:44.635Z,6.13
2023-04-27T06:00:44.635Z,6.16
2023-04-27T06:01:44.577Z,6.17
2023-04-27T06:02:44.737Z,6.19
2023-04-27T06:03:44.713Z,6.20
2023-04-27T06:04:44.586Z,6.25
2023-04-27T06:05:44.531Z,6.30
2023-04-27T06:06:44.509Z,6.33
2023-04-27T06:07:44.485Z,6.36
2023-04-27T06:08:44.516Z,6.38
2023-04-27T06:09:44.504Z,6.40
2023-04-27T06:10:44.521Z,6.46
2023-04-27T06:11:44.441Z,6.48
2023-04-27T06:12:46.313Z,6.50
2023-04-27T06:13:44.430Z,6.54
2023-04-27T06:14:44.450Z,6.57
2023-04-27T06:15:44.545Z,6.57
2023-04-27T06:16:44.433Z,6.60
2023-04-27T06:17:44.436Z,6.61
2023-04-27T06:18:44.397Z,6.65
2023-04-27T06:19:44.355Z,6.69
2023-04-27T06:20:44.359Z,6.71
2023-04-27T06:21:44.349Z,6.75
2023-04-27T06:22:44.305Z,6.76
2023-04-27T06:23:44.311Z,6.78
2023-04-27T06:24:44.307Z,6.82
2023-04-27T06:25:44.270Z,6.86
2023-04-27T06:26:44.335Z,6.87
2023-04-27T06:27:44.262Z,6.91
2023-04-27T06:28:44.228Z,6.96
2023-04-27T06:29:44.202Z,6.99
2023-04-27T06:30:44.238Z,7.00
2023-04-27T06:31:44.249Z,7.05
2023-04-27T06:32:44.257Z,7.12
2023-04-27T06:33:44.186Z,7.16
2023-04-27T06:34:44.189Z,7.19
2023-04-27T06:35:46.514Z,7.26
2023-04-27T06:36:44.152Z,7.32
2023-04-27T06:37:44.112Z,7.39
2023-04-27T06:38:44.129Z,7.44
2023-04-27T06:39:44.120Z,7.51
2023-04-27T06:40:44.116Z,7.54
2023-04-27T06:41:44.105Z,7.57
2023-04-27T06:42:44.109Z,7.60
2023-04-27T06:43:44.054Z,7.62
2023-04-27T06:44:44.032Z,7.67
2023-04-27T06:45:44.047Z,7.69
2023-04-27T06:46:44.119Z,7.73
2023-04-27T06:47:44.006Z,7.77
2023-04-27T06:48:43.990Z,7.81
2023-04-27T06:49:43.952Z,7.85
2023-04-27T06:50:43.981Z,7.91
2023-04-27T06:51:43.946Z,7.94
2023-04-27T06:52:43.956Z,7.99
2023-04-27T06:53:44.202Z,8.03
2023-04-27T06:54:43.909Z,8.06
2023-04-27T06:55:45.584Z,8.09
2023-04-27T06:56:43.901Z,8.10
2023-04-27T06:57:43.851Z,8.13
2023-04-27T06:58:43.880Z,8.14
2023-04-27T06:59:43.837Z,8.18
2023-04-27T07:00:43.868Z,8.21
2023-04-27T07:01:43.923Z,8.27
2023-04-27T07:02:43.977Z,8.32
2023-04-27T07:03:43.907Z,8.37
2023-04-27T07:04:43.798Z,8.39
2023-04-27T07:05:43.762Z,8.49
2023-04-27T07:06:43.792Z,8.57
2023-04-27T07:07:43.710Z,8.64
2023-04-27T07:08:43.729Z,8.70
2023-04-27T07:09:43.722Z,8.75
2023-04-27T07:10:43.701Z,8.79
2023-04-27T07:11:43.712Z,8.86
2023-04-27T07:12:43.676Z,8.89
2023-04-27T07:13:43.704Z,8.97
2023-04-27T07:14:43.637Z,9.01
2023-04-27T07:15:43.661Z,9.04
2023-04-27T07:16:43.656Z,9.06
2023-04-27T07:17:43.657Z,9.10
2023-04-27T07:18:43.735Z,9.16
2023-04-27T07:19:43.567Z,9.23
2023-04-27T07:20:43.585Z,9.27
2023-04-27T07:21:43.584Z,9.30
2023-04-27T07:22:43.556Z,9.35
2023-04-27T07:23:43.555Z,9.40
2023-04-27T07:24:43.556Z,9.38
2023-04-27T07:25:43.547Z,9.37
2023-04-27T07:26:43.531Z,9.38
2023-04-27T07:27:43.491Z,9.41
2023-04-27T07:28:43.487Z,9.45
2023-04-27T07:29:43.485Z,9.49
2023-04-27T07:30:43.473Z,9.53
2023-04-27T07:31:43.509Z,9.53
2023-04-27T07:32:43.456Z,9.56
2023-04-27T07:33:43.411Z,9.59
2023-04-27T07:34:52.926Z,9.65
2023-04-27T07:35:44.383Z,9.70
2023-04-27T07:36:43.369Z,9.75
2023-04-27T07:37:43.401Z,9.80
2023-04-27T07:38:43.392Z,9.83
2023-04-27T07:39:43.396Z,9.81
2023-04-27T07:40:44.784Z,9.85
2023-04-27T07:41:43.336Z,9.85
2023-04-27T07:42:43.325Z,9.86
2023-04-27T07:43:43.314Z,9.86
2023-04-27T07:44:43.287Z,9.93
2023-04-27T07:45:43.283Z,9.92
2023-04-27T07:46:43.239Z,9.99
2023-04-27T07:47:43.261Z,10.02
2023-04-27T07:48:43.219Z,10.06
2023-04-27T07:49:43.235Z,10.06
2023-04-27T07:50:43.204Z,10.06
2023-04-27T07:51:43.179Z,10.06
2023-04-27T07:52:43.155Z,10.09
2023-04-27T07:53:43.195Z,10.09
2023-04-27T07:54:43.131Z,10.09
2023-04-27T07:55:43.161Z,10.13
2023-04-27T07:56:43.131Z,10.14
2023-04-27T07:57:43.130Z,10.18
2023-04-27T07:58:43.091Z,10.25
2023-04-27T07:59:43.092Z,10.31
2023-04-27T08:00:43.119Z,10.34
2023-04-27T08:01:43.066Z,10.35
2023-04-27T08:02:43.259Z,10.26
2023-04-27T08:03:43.152Z,10.22
2023-04-27T08:04:43.484Z,10.29
2023-04-27T08:05:43.283Z,10.24
2023-04-27T08:06:43.357Z,10.13
2023-04-27T08:07:44.894Z,10.11
2023-04-27T08:08:42.967Z,10.16
2023-04-27T08:09:42.930Z,10.25
2023-04-27T08:10:42.990Z,10.38
2023-04-27T08:11:42.933Z,10.47
2023-04-27T08:12:42.927Z,10.52
2023-04-27T08:13:42.893Z,10.55
2023-04-27T08:14:42.860Z,10.57
2023-04-27T08:15:42.885Z,10.55
2023-04-27T08:16:42.913Z,10.58
2023-04-27T08:17:42.845Z,10.65
2023-04-27T08:18:42.850Z,10.70
2023-04-27T08:19:42.818Z,10.78
2023-04-27T08:20:42.810Z,10.76
2023-04-27T08:21:42.807Z,10.68
2023-04-27T08:22:42.779Z,10.66
2023-04-27T08:23:42.812Z,10.72
2023-04-27T08:24:42.769Z,10.75
2023-04-27T08:25:42.713Z,10.80
2023-04-27T08:26:42.772Z,10.83
2023-04-27T08:27:42.832Z,10.84
2023-04-27T08:28:42.721Z,10.83
2023-04-27T08:29:42.688Z,10.83
2023-04-27T08:30:42.724Z,10.84
2023-04-27T08:31:42.785Z,10.90
2023-04-27T08:32:42.685Z,10.94
2023-04-27T08:33:42.632Z,10.84
2023-04-27T08:34:42.641Z,10.80
2023-04-27T08:35:42.616Z,10.86
2023-04-27T08:36:42.617Z,10.90
2023-04-27T08:37:42.628Z,10.95
2023-04-27T08:38:42.559Z,10.98
2023-04-27T08:39:42.538Z,11.01
2023-04-27T08:40:42.608Z,11.03
2023-04-27T08:41:42.563Z,11.11
2023-04-27T08:42:42.513Z,11.17
2023-04-27T08:43:42.530Z,11.20
2023-04-27T08:44:42.497Z,11.23
2023-04-27T08:45:42.471Z,11.31
2023-04-27T08:46:42.617Z,11.39
2023-04-27T08:47:43.994Z,11.44
2023-04-27T08:48:42.486Z,11.44
2023-04-27T08:49:42.445Z,11.48
2023-04-27T08:50:42.432Z,11.54
2023-04-27T08:51:42.435Z,11.57
2023-04-27T08:52:42.472Z,11.57
2023-04-27T08:53:42.452Z,11.59
2023-04-27T08:54:42.406Z,11.66
2023-04-27T08:55:42.388Z,11.69
2023-04-27T08:56:42.317Z,11.66
2023-04-27T08:57:42.373Z,11.60
2023-04-27T08:58:42.293Z,11.46
2023-04-27T08:59:42.306Z,11.45
2023-04-27T09:00:42.307Z,11.48
2023-04-27T09:01:42.333Z,11.56
2023-04-27T09:02:42.449Z,11.66
2023-04-27T09:03:42.426Z,11.69
2023-04-27T09:04:42.357Z,11.74
2023-04-27T09:05:49.503Z,11.70
2023-04-27T09:06:43.217Z,11.63
2023-04-27T09:07:42.279Z,11.59
2023-04-27T09:08:42.198Z,11.56
2023-04-27T09:09:42.201Z,11.60
2023-04-27T09:10:42.162Z,11.62
2023-04-27T09:11:42.166Z,11.62
2023-04-27T09:12:42.166Z,11.54
2023-04-27T09:13:42.146Z,11.51
2023-04-27T09:14:42.109Z,11.46
2023-04-27T09:15:42.109Z,11.39
2023-04-27T09:16:42.209Z,11.41
2023-04-27T09:17:42.130Z,11.44
2023-04-27T09:18:42.079Z,11.53
2023-04-27T09:19:42.070Z,11.60
2023-04-27T09:20:42.027Z,11.70
2023-04-27T09:21:42.038Z,11.79
2023-04-27T09:22:42.034Z,11.82
2023-04-27T09:23:41.986Z,11.84
2023-04-27T09:24:41.991Z,11.88
2023-04-27T09:25:41.979Z,11.93
2023-04-27T09:26:41.987Z,11.93
2023-04-27T09:27:41.934Z,11.88
2023-04-27T09:28:41.910Z,11.82
2023-04-27T09:29:41.942Z,11.85
2023-04-27T09:30:41.902Z,11.88
2023-04-27T09:31:41.950Z,11.88
2023-04-27T09:32:41.938Z,11.93
2023-04-27T09:33:41.891Z,12.00
2023-04-27T09:34:41.895Z,12.00
2023-04-27T09:35:41.875Z,11.94
2023-04-27T09:36:41.856Z,11.90
2023-04-27T09:37:41.838Z,11.93
2023-04-27T09:38:41.801Z,11.94
2023-04-27T09:39:41.790Z,12.00
2023-04-27T09:40:41.778Z,12.04
2023-04-27T09:41:41.765Z,12.08
2023-04-27T09:42:41.791Z,12.15
2023-04-27T09:43:41.769Z,12.19
2023-04-27T09:44:41.832Z,12.21
2023-04-27T09:45:41.864Z,12.23
2023-04-27T09:46:41.675Z,12.31
2023-04-27T09:47:41.722Z,12.34
2023-04-27T09:48:41.680Z,12.40
2023-04-27T09:49:41.900Z,12.44
2023-04-27T09:50:41.625Z,12.46
2023-04-27T09:51:41.650Z,12.44
2023-04-27T09:52:41.649Z,12.30
2023-04-27T09:53:41.606Z,12.15
2023-04-27T09:54:41.636Z,12.04
2023-04-27T09:55:41.607Z,12.05
2023-04-27T09:56:41.535Z,12.03
2023-04-27T09:57:41.562Z,12.00
2023-04-27T09:58:41.528Z,11.98
2023-04-27T09:59:41.605Z,11.98
2023-04-27T10:00:41.546Z,12.01
2023-04-27T10:01:41.625Z,12.05
2023-04-27T10:02:52.770Z,12.04
2023-04-27T10:03:42.522Z,12.07
2023-04-27T10:04:41.612Z,12.07
2023-04-27T10:05:41.474Z,12.04
2023-04-27T10:06:41.445Z,11.97
2023-04-27T10:07:41.516Z,11.82
2023-04-27T10:08:41.446Z,11.90
2023-04-27T10:09:41.425Z,12.04
2023-04-27T10:10:41.374Z,12.18
2023-04-27T10:11:41.402Z,12.22
2023-04-27T10:12:41.362Z,12.30
2023-04-27T10:13:41.332Z,12.37
2023-04-27T10:14:41.310Z,12.43
2023-04-27T10:15:41.324Z,12.49
2023-04-27T10:16:41.350Z,12.58
2023-04-27T10:17:41.333Z,12.63
2023-04-27T10:18:41.268Z,12.71
2023-04-27T10:19:41.305Z,12.79
2023-04-27T10:20:41.383Z,12.87
2023-04-27T10:21:41.251Z,12.89
2023-04-27T10:22:41.237Z,12.85
2023-04-27T10:23:41.234Z,12.71
2023-04-27T10:24:41.946Z,12.63
2023-04-27T10:25:41.201Z,12.54
2023-04-27T10:26:41.153Z,12.43
2023-04-27T10:27:41.200Z,12.34
2023-04-27T10:28:41.137Z,12.34
2023-04-27T10:29:41.141Z,12.30
2023-04-27T10:30:41.215Z,12.26
2023-04-27T10:31:41.135Z,12.30
2023-04-27T10:32:41.158Z,12.34
2023-04-27T10:33:41.106Z,12.41
2023-04-27T10:34:41.137Z,12.51
2023-04-27T10:35:41.103Z,12.59
2023-04-27T10:36:41.217Z,12.63
2023-04-27T10:37:41.056Z,12.73
2023-04-27T10:38:41.168Z,12.74
2023-04-27T10:39:48.562Z,12.77
2023-04-27T10:40:42.003Z,12.77
2023-04-27T10:41:40.993Z,12.76
2023-04-27T10:42:40.994Z,12.81
2023-04-27T10:43:40.964Z,12.80
2023-04-27T10:44:40.944Z,12.89
2023-04-27T10:45:40.972Z,12.94
2023-04-27T10:46:40.949Z,12.95
2023-04-27T10:47:40.921Z,12.99
2023-04-27T10:48:40.882Z,13.01
2023-04-27T10:49:40.927Z,13.09
2023-04-27T10:50:40.934Z,13.16
2023-04-27T10:51:40.854Z,13.24
2023-04-27T10:52:40.866Z,13.32
2023-04-27T10:53:40.864Z,13.32
2023-04-27T10:54:40.826Z,13.32
2023-04-27T10:55:40.836Z,13.35
2023-04-27T10:56:40.789Z,13.35
2023-04-27T10:57:40.821Z,13.31
2023-04-27T10:58:48.945Z,13.27
2023-04-27T10:59:41.802Z,13.27
2023-04-27T11:00:40.763Z,13.22
2023-04-27T11:01:40.759Z,13.19
2023-04-27T11:02:40.751Z,13.22
2023-04-27T11:03:40.880Z,13.25
2023-04-27T11:04:40.727Z,13.29
2023-04-27T11:05:40.695Z,13.32
2023-04-27T11:06:40.700Z,13.36
2023-04-27T11:07:40.663Z,13.16
2023-04-27T11:08:40.626Z,13.07
2023-04-27T11:09:40.626Z,13.06
2023-04-27T11:10:40.664Z,13.12
2023-04-27T11:11:40.594Z,13.12
2023-04-27T11:12:40.571Z,13.17
2023-04-27T11:13:40.629Z,13.27
2023-04-27T11:14:40.577Z,13.29
2023-04-27T11:15:40.578Z,13.35
2023-04-27T11:16:40.643Z,13.28
2023-04-27T11:17:40.572Z,13.27
2023-04-27T11:18:40.531Z,13.12
2023-04-27T11:19:40.514Z,13.03
2023-04-27T11:20:40.527Z,13.04
2023-04-27T11:21:40.469Z,12.96
2023-04-27T11:22:40.466Z,12.96
2023-04-27T11:23:40.460Z,12.96
2023-04-27T11:24:40.456Z,13.01
2023-04-27T11:25:40.466Z,13.06
2023-04-27T11:26:40.395Z,13.13
2023-04-27T11:27:40.432Z,13.21
2023-04-27T11:28:40.378Z,13.24
2023-04-27T11:29:40.383Z,13.27
2023-04-27T11:30:40.392Z,13.36
2023-04-27T11:31:40.393Z,13.43
2023-04-27T11:32:40.345Z,13.43
2023-04-27T11:33:40.347Z,13.44
2023-04-27T11:34:40.311Z,13.46
2023-04-27T11:35:40.345Z,13.47
2023-04-27T11:36:40.287Z,13.48
2023-04-27T11:37:40.269Z,13.41
2023-04-27T11:38:40.289Z,13.31
2023-04-27T11:39:40.268Z,13.28
2023-04-27T11:40:40.315Z,13.31
2023-04-27T11:41:40.272Z,13.31
2023-04-27T11:42:40.207Z,13.28
2023-04-27T11:43:40.225Z,13.35
2023-04-27T11:44:40.190Z,13.39
2023-04-27T11:45:40.229Z,13.48
2023-04-27T11:46:40.164Z,13.53
2023-04-27T11:47:40.194Z,13.53
2023-04-27T11:48:40.146Z,13.41
2023-04-27T11:49:40.168Z,13.29
2023-04-27T11:50:40.114Z,13.31
2023-04-27T11:51:40.076Z,13.25
2023-04-27T11:52:40.183Z,13.28
2023-04-27T11:53:40.060Z,13.31
2023-04-27T11:54:40.082Z,13.32
2023-04-27T11:55:40.082Z,13.38
2023-04-27T11:56:40.038Z,13.35
2023-04-27T11:57:40.041Z,13.32
2023-04-27T11:58:40.008Z,13.28
2023-04-27T11:59:40.002Z,13.35
2023-04-27T12:00:39.994Z,13.41
2023-04-27T12:01:39.997Z,13.43
2023-04-27T12:02:40.094Z,13.41
2023-04-27T12:03:40.106Z,13.39
2023-04-27T12:04:40.123Z,13.31
2023-04-27T12:05:39.983Z,13.29
2023-04-27T12:06:39.944Z,13.29
2023-04-27T12:07:39.930Z,13.35
2023-04-27T12:08:39.883Z,13.43
2023-04-27T12:09:39.880Z,13.48
2023-04-27T12:10:39.868Z,13.51
2023-04-27T12:11:39.862Z,13.57
2023-04-27T12:12:39.813Z,13.63
2023-04-27T12:13:39.845Z,13.68
2023-04-27T12:14:39.803Z,13.72
2023-04-27T12:15:39.830Z,13.75
2023-04-27T12:16:39.839Z,13.73
2023-04-27T12:17:39.783Z,13.76
2023-04-27T12:18:39.735Z,13.73
2023-04-27T12:19:39.788Z,13.71
2023-04-27T12:20:39.795Z,13.73
2023-04-27T12:21:39.697Z,13.72
2023-04-27T12:22:39.670Z,13.71
2023-04-27T12:23:39.695Z,13.76
2023-04-27T12:24:39.673Z,13.80
2023-04-27T12:25:39.676Z,13.73
2023-04-27T12:26:39.654Z,13.75
2023-04-27T12:27:39.647Z,13.79
2023-04-27T12:28:39.618Z,13.86
2023-04-27T12:29:39.606Z,13.88
2023-04-27T12:30:39.650Z,13.76
2023-04-27T12:31:39.685Z,13.68
2023-04-27T12:32:39.615Z,13.62
2023-04-27T12:33:39.606Z,13.62
2023-04-27T12:34:39.624Z,13.63
2023-04-27T12:35:39.551Z,13.69
2023-04-27T12:36:39.516Z,13.72
2023-04-27T12:37:39.497Z,13.80
2023-04-27T12:38:39.489Z,13.91
2023-04-27T12:39:39.508Z,14.02
2023-04-27T12:40:39.437Z,14.13
2023-04-27T12:41:39.465Z,14.24
2023-04-27T12:42:39.444Z,14.30
2023-04-27T12:43:39.429Z,14.36
2023-04-27T12:44:39.460Z,14.39
2023-04-27T12:45:39.439Z,14.42
2023-04-27T12:46:39.455Z,14.35
2023-04-27T12:47:58.321Z,14.27
2023-04-27T12:48:40.412Z,14.24
2023-04-27T12:49:39.331Z,14.26
2023-04-27T12:50:39.373Z,14.21
2023-04-27T12:51:39.338Z,14.21
2023-04-27T12:52:39.334Z,14.20
2023-04-27T12:53:39.280Z,14.11
2023-04-27T12:54:39.292Z,14.08
2023-04-27T12:55:39.296Z,14.06
2023-04-27T12:56:39.269Z,14.01
2023-04-27T12:57:39.258Z,13.93
2023-04-27T12:58:39.225Z,13.94
2023-04-27T12:59:39.217Z,13.84
2023-04-27T13:00:39.236Z,13.79
2023-04-27T13:01:39.234Z,13.73
2023-04-27T13:02:39.290Z,13.76
2023-04-27T13:03:39.361Z,13.75
2023-04-27T13:04:39.296Z,13.79
2023-04-27T13:05:39.145Z,13.86
2023-04-27T13:06:39.098Z,13.83
2023-04-27T13:07:39.109Z,13.86